createdAt,value
2017-07-01T00:01:21.729Z,94.00
2017-07-01T00:03:53.686Z,93.90
2017-07-01T00:06:22.294Z,94.00
2017-07-01T00:08:51.863Z,94.00
2017-07-01T00:11:21.674Z,94.00
2017-07-01T00:13:52.009Z,94.10
2017-07-01T00:16:21.978Z,94.00
2017-07-01T00:18:52.640Z,94.20
2017-07-01T00:21:22.018Z,94.10
2017-07-01T00:23:53.904Z,94.00
2017-07-01T00:26:22.302Z,94.00
2017-07-01T00:28:51.653Z,94.00
2017-07-01T00:31:22.902Z,94.00
2017-07-01T00:33:52.656Z,94.00
2017-07-01T00:36:22.258Z,94.00
2017-07-01T00:38:52.719Z,94.00
2017-07-01T00:41:23.108Z,94.00
2017-07-01T00:43:52.548Z,94.10
2017-07-01T00:46:21.751Z,94.00
2017-07-01T00:48:50.070Z,94.10
2017-07-01T00:51:18.532Z,94.10
2017-07-01T00:53:47.725Z,94.10
2017-07-01T00:56:16.088Z,94.10
2017-07-01T00:58:44.649Z,94.00
2017-07-01T01:01:13.371Z,93.90
2017-07-01T01:03:41.799Z,93.90
2017-07-01T01:06:10.194Z,94.10
2017-07-01T01:08:38.991Z,94.00
2017-07-01T01:11:08.322Z,94.00
2017-07-01T01:13:36.763Z,94.00
2017-07-01T01:16:06.555Z,94.00
2017-07-01T01:18:35.095Z,94.10
2017-07-01T01:21:03.523Z,93.90
2017-07-01T01:23:32.079Z,94.00
2017-07-01T01:26:00.502Z,93.90
2017-07-01T01:28:28.927Z,94.20
2017-07-01T01:30:58.777Z,93.90
2017-07-01T01:33:27.152Z,93.90
2017-07-01T01:35:56.333Z,94.00
2017-07-01T01:38:26.040Z,94.00
2017-07-01T01:40:55.136Z,94.00
2017-07-01T01:43:25.512Z,94.00
2017-07-01T01:45:54.129Z,94.00
2017-07-01T01:48:35.346Z,94.00
2017-07-01T01:51:04.951Z,94.00
2017-07-01T01:53:33.368Z,94.00
2017-07-01T01:56:02.583Z,93.90
2017-07-01T01:58:31.160Z,94.00
2017-07-01T02:01:06.676Z,93.90
2017-07-01T02:03:37.466Z,93.90
2017-07-01T02:06:05.993Z,93.90
2017-07-01T02:08:37.456Z,93.90
2017-07-01T02:11:06.031Z,93.90
2017-07-01T02:13:34.520Z,93.90
2017-07-01T02:16:21.689Z,93.90
2017-07-01T02:18:50.072Z,94.00
2017-07-01T02:21:21.104Z,93.90
2017-07-01T02:23:50.862Z,93.90
2017-07-01T02:26:21.166Z,93.90
2017-07-01T02:28:49.575Z,94.00
2017-07-01T02:31:18.352Z,94.00
2017-07-01T02:34:23.984Z,94.00
2017-07-01T02:36:54.418Z,94.00
2017-07-01T02:39:37.165Z,94.10
2017-07-01T02:42:06.197Z,94.10
2017-07-01T02:44:34.820Z,94.00
2017-07-01T02:47:09.366Z,94.00
2017-07-01T02:49:42.635Z,94.00
2017-07-01T02:52:33.276Z,94.00
2017-07-01T02:55:22.334Z,94.00
2017-07-01T02:57:50.905Z,94.00
2017-07-01T03:00:19.297Z,94.00
2017-07-01T03:02:52.098Z,94.00
2017-07-01T03:05:21.668Z,94.00
2017-07-01T03:07:50.144Z,94.00
2017-07-01T03:10:18.947Z,94.20
2017-07-01T03:12:47.330Z,94.20
2017-07-01T03:15:17.524Z,94.20
2017-07-01T03:17:46.234Z,94.10
2017-07-01T03:20:25.380Z,94.20
2017-07-01T03:23:14.933Z,94.50
2017-07-01T03:26:01.119Z,94.30
2017-07-01T03:28:30.201Z,94.20
2017-07-01T03:30:58.568Z,94.30
2017-07-01T03:33:26.947Z,94.30
2017-07-01T03:35:56.554Z,94.30
2017-07-01T03:38:46.544Z,94.30
2017-07-01T03:41:38.728Z,94.30
2017-07-01T03:44:37.134Z,94.40
2017-07-01T03:47:05.870Z,94.40
2017-07-01T03:49:40.877Z,94.40
2017-07-01T03:52:09.585Z,94.40
2017-07-01T03:54:39.675Z,94.30
2017-07-01T03:57:08.323Z,94.40
2017-07-01T03:59:38.283Z,94.40
2017-07-01T04:02:06.791Z,94.30
2017-07-01T04:04:38.913Z,94.30
2017-07-01T04:07:07.778Z,94.30
2017-07-01T04:09:36.265Z,94.50
2017-07-01T04:12:04.745Z,94.60
2017-07-01T04:14:34.598Z,94.50
2017-07-01T04:17:06.945Z,94.50
2017-07-01T04:19:44.949Z,94.60
2017-07-01T04:22:13.503Z,94.50
2017-07-01T04:24:42.704Z,94.60
2017-07-01T04:27:11.312Z,94.60
2017-07-01T04:29:39.741Z,94.60
2017-07-01T04:32:08.999Z,94.50
2017-07-01T04:34:38.709Z,94.50
2017-07-01T04:37:07.136Z,94.40
2017-07-01T04:39:35.755Z,94.40
2017-07-01T04:42:21.357Z,94.40
2017-07-01T04:45:09.384Z,94.30
2017-07-01T04:47:49.012Z,94.50
2017-07-01T04:50:17.413Z,94.60
2017-07-01T04:52:46.296Z,94.60
2017-07-01T04:55:15.951Z,94.60
2017-07-01T04:58:00.803Z,94.60
2017-07-01T05:00:34.917Z,94.50
2017-07-01T05:03:03.286Z,94.60
2017-07-01T05:05:57.750Z,94.60
2017-07-01T05:08:29.857Z,94.60
2017-07-01T05:10:58.628Z,94.60
2017-07-01T05:13:27.243Z,94.60
2017-07-01T05:15:57.725Z,94.60
2017-07-01T05:18:26.727Z,94.60
2017-07-01T05:20:56.947Z,94.50
2017-07-01T05:23:53.323Z,94.50
2017-07-01T05:26:21.876Z,94.70
2017-07-01T05:28:50.408Z,94.70
2017-07-01T05:31:25.195Z,94.80
2017-07-01T05:33:54.336Z,95.20
2017-07-01T05:36:35.627Z,95.30
2017-07-01T05:39:23.187Z,95.50
2017-07-01T05:42:12.400Z,96.00
2017-07-01T05:44:46.728Z,96.40
2017-07-01T05:47:17.605Z,96.90
2017-07-01T05:49:46.351Z,96.80
2017-07-01T05:52:14.836Z,96.80
2017-07-01T05:54:43.622Z,96.80
2017-07-01T05:57:12.026Z,96.90
2017-07-01T05:59:42.453Z,96.90
2017-07-01T06:02:27.911Z,97.20
2017-07-01T06:04:57.072Z,97.00
2017-07-01T06:07:25.681Z,97.00
2017-07-01T06:10:10.969Z,97.20
2017-07-01T06:12:44.366Z,97.10
2017-07-01T06:15:29.609Z,97.00
2017-07-01T06:17:58.081Z,97.10
2017-07-01T06:20:35.541Z,97.20
2017-07-01T06:23:03.942Z,97.20
2017-07-01T06:25:33.065Z,97.10
2017-07-01T06:28:04.601Z,97.10
2017-07-01T06:30:45.031Z,97.20
2017-07-01T06:33:14.140Z,97.20
2017-07-01T06:35:52.123Z,97.00
2017-07-01T06:38:36.582Z,96.90
2017-07-01T06:41:25.611Z,96.90
2017-07-01T06:44:12.764Z,96.80
2017-07-01T06:46:57.792Z,96.80
2017-07-01T06:49:26.475Z,96.70
2017-07-01T06:52:06.380Z,96.50
2017-07-01T06:54:35.219Z,96.60
2017-07-01T06:57:03.632Z,96.70
2017-07-01T06:59:32.181Z,96.70
2017-07-01T07:02:00.883Z,96.70
2017-07-01T07:04:35.232Z,96.40
2017-07-01T07:07:04.444Z,95.90
2017-07-01T07:09:33.836Z,95.90
2017-07-01T07:12:02.224Z,96.10
2017-07-01T07:14:30.889Z,96.10
2017-07-01T07:16:59.276Z,96.20
2017-07-01T07:19:27.732Z,96.30
2017-07-01T07:21:57.936Z,96.20
2017-07-01T07:24:26.445Z,96.20
2017-07-01T07:26:54.837Z,96.20
2017-07-01T07:29:23.582Z,96.00
2017-07-01T07:31:51.987Z,96.10
2017-07-01T07:34:20.358Z,96.10
2017-07-01T07:36:50.149Z,96.00
2017-07-01T07:39:18.592Z,96.20
2017-07-01T07:41:46.940Z,96.20
2017-07-01T07:44:15.613Z,96.20
2017-07-01T07:46:44.996Z,96.00
2017-07-01T07:49:13.400Z,96.00
2017-07-01T07:51:43.449Z,96.00
2017-07-01T07:54:12.172Z,95.80
2017-07-01T07:56:40.501Z,96.00
2017-07-01T07:59:10.391Z,96.00
2017-07-01T08:01:39.005Z,95.90
2017-07-01T08:04:07.425Z,95.60
2017-07-01T08:06:36.125Z,95.50
2017-07-01T08:09:04.575Z,95.40
2017-07-01T08:11:33.017Z,95.80
2017-07-01T08:14:01.721Z,96.00
2017-07-01T08:16:30.062Z,95.80
2017-07-01T08:18:58.420Z,96.00
2017-07-01T08:21:27.104Z,96.10
2017-07-01T08:23:55.448Z,96.00
2017-07-01T08:26:23.835Z,95.80
2017-07-01T08:28:52.389Z,95.90
2017-07-01T08:31:20.784Z,96.00
2017-07-01T08:33:49.157Z,95.90
2017-07-01T08:36:17.939Z,95.70
2017-07-01T08:38:46.428Z,95.70
2017-07-01T08:41:15.560Z,95.40
2017-07-01T08:43:45.127Z,95.40
2017-07-01T08:46:13.674Z,95.40
2017-07-01T08:48:42.093Z,95.40
2017-07-01T08:51:10.721Z,95.50
2017-07-01T08:53:40.229Z,95.50
2017-07-01T08:56:08.736Z,95.50
2017-07-01T08:58:38.299Z,95.50
2017-07-01T09:01:06.794Z,95.50
2017-07-01T09:03:35.322Z,95.60
2017-07-01T09:06:04.969Z,95.50
2017-07-01T09:08:33.448Z,95.20
2017-07-01T09:11:01.827Z,95.30
2017-07-01T09:13:30.703Z,95.30
2017-07-01T09:15:59.220Z,94.90
2017-07-01T09:18:27.634Z,94.80
2017-07-01T09:21:00.245Z,94.70
2017-07-01T09:23:28.613Z,94.60
2017-07-01T09:25:57.039Z,93.90
2017-07-01T09:28:26.167Z,94.10
2017-07-01T09:30:59.903Z,93.80
2017-07-01T09:33:28.572Z,93.80
2017-07-01T09:35:57.873Z,94.00
2017-07-01T09:38:26.290Z,93.60
2017-07-01T09:40:55.948Z,94.10
2017-07-01T09:43:25.385Z,94.20
2017-07-01T09:45:53.786Z,93.70
2017-07-01T09:48:22.707Z,92.50
2017-07-01T09:50:51.867Z,93.50
2017-07-01T09:53:20.290Z,93.50
2017-07-01T09:55:48.884Z,93.70
2017-07-01T09:58:17.350Z,92.80
2017-07-01T10:00:45.871Z,93.30
2017-07-01T10:03:15.404Z,93.40
2017-07-01T10:05:43.896Z,93.30
2017-07-01T10:08:12.372Z,93.60
2017-07-01T10:10:42.728Z,93.70
2017-07-01T10:13:11.166Z,93.70
2017-07-01T10:15:39.566Z,93.70
2017-07-01T10:18:08.458Z,93.80
2017-07-01T10:20:37.051Z,93.70
2017-07-01T10:23:05.624Z,93.40
2017-07-01T10:25:34.877Z,93.70
2017-07-01T10:28:03.292Z,93.60
2017-07-01T10:30:31.674Z,93.50
2017-07-01T10:33:00.368Z,93.20
2017-07-01T10:35:28.767Z,93.20
2017-07-01T10:37:57.924Z,93.40
2017-07-01T10:40:27.398Z,93.40
2017-07-01T10:42:55.740Z,93.30
2017-07-01T10:45:24.104Z,93.10
2017-07-01T10:47:52.993Z,93.20
2017-07-01T10:50:21.348Z,93.40
2017-07-01T10:52:51.400Z,93.30
2017-07-01T10:55:20.361Z,93.30
2017-07-01T10:57:49.665Z,92.90
2017-07-01T11:00:18.242Z,92.90
2017-07-01T11:02:47.497Z,92.70
2017-07-01T11:05:15.916Z,93.00
2017-07-01T11:07:44.383Z,92.80
2017-07-01T11:10:12.906Z,92.70
2017-07-01T11:12:42.493Z,92.70
2017-07-01T11:15:10.868Z,92.50
2017-07-01T11:17:40.887Z,92.10
2017-07-01T11:20:09.439Z,91.60
2017-07-01T11:22:38.209Z,91.30
2017-07-01T11:25:07.252Z,91.00
2017-07-01T11:27:36.124Z,90.90
2017-07-01T11:30:04.825Z,90.40
2017-07-01T11:32:34.681Z,90.30
2017-07-01T11:35:03.962Z,89.90
2017-07-01T11:37:33.261Z,89.80
2017-07-01T11:40:02.044Z,90.10
2017-07-01T11:42:30.404Z,90.00
2017-07-01T11:44:58.885Z,89.20
2017-07-01T11:47:27.361Z,88.80
2017-07-01T11:49:55.737Z,88.50
2017-07-01T11:52:24.102Z,88.70
2017-07-01T11:54:52.548Z,88.90
2017-07-01T11:57:20.984Z,87.40
2017-07-01T11:59:49.412Z,87.70
2017-07-01T12:02:18.170Z,86.90
2017-07-01T12:04:46.685Z,87.80
2017-07-01T12:07:15.165Z,87.80
2017-07-01T12:09:43.700Z,87.50
2017-07-01T12:12:12.116Z,87.00
2017-07-01T12:14:40.494Z,87.30
2017-07-01T12:17:09.692Z,86.50
2017-07-01T12:19:38.256Z,84.70
2017-07-01T12:22:06.840Z,83.30
2017-07-01T12:24:36.681Z,83.50
2017-07-01T12:27:06.232Z,82.80
2017-07-01T12:29:35.606Z,84.30
2017-07-01T12:32:04.369Z,83.30
2017-07-01T12:34:32.771Z,82.30
2017-07-01T12:37:02.049Z,83.40
2017-07-01T12:39:30.440Z,83.00
2017-07-01T12:41:58.827Z,82.10
2017-07-01T12:44:27.365Z,81.80
2017-07-01T12:46:56.231Z,78.70
2017-07-01T12:49:24.610Z,76.40
2017-07-01T12:51:53.999Z,74.10
2017-07-01T12:54:22.659Z,70.50
2017-07-01T12:56:51.113Z,68.50
2017-07-01T12:59:19.654Z,70.30
2017-07-01T13:01:49.673Z,69.10
2017-07-01T13:04:18.105Z,69.30
2017-07-01T13:06:47.295Z,63.30
2017-07-01T13:09:16.219Z,63.30
2017-07-01T13:11:44.725Z,60.00
2017-07-01T13:14:13.924Z,60.30
2017-07-01T13:16:43.492Z,60.00
2017-07-01T13:19:12.676Z,66.50
2017-07-01T13:21:41.149Z,66.40
2017-07-01T13:24:10.859Z,68.50
2017-07-01T13:26:41.374Z,68.40
2017-07-01T13:29:09.853Z,68.20
2017-07-01T13:31:38.701Z,67.50
2017-07-01T13:34:07.258Z,67.80
2017-07-01T13:36:35.867Z,67.90
2017-07-01T13:39:04.715Z,68.10
2017-07-01T13:41:33.915Z,68.50
2017-07-01T13:44:02.311Z,68.40
2017-07-01T13:46:30.977Z,68.20
2017-07-01T13:48:59.311Z,68.30
2017-07-01T13:51:27.689Z,68.40
2017-07-01T13:53:56.599Z,69.20
2017-07-01T13:56:25.042Z,68.40
2017-07-01T13:58:53.450Z,68.30
2017-07-01T14:01:22.188Z,70.20
2017-07-01T14:03:50.669Z,70.10
2017-07-01T14:06:19.189Z,69.60
2017-07-01T14:08:47.793Z,69.30
2017-07-01T14:11:16.182Z,68.50
2017-07-01T14:13:44.668Z,68.30
2017-07-01T14:16:15.060Z,68.60
2017-07-01T14:18:43.673Z,68.00
2017-07-01T14:21:12.083Z,68.80
2017-07-01T14:23:41.620Z,70.10
2017-07-01T14:26:10.875Z,70.60
2017-07-01T14:28:40.136Z,71.50
2017-07-01T14:31:08.917Z,71.30
2017-07-01T14:33:37.356Z,71.70
2017-07-01T14:36:06.765Z,71.80
2017-07-01T14:38:36.160Z,72.00
2017-07-01T14:41:05.036Z,72.10
2017-07-01T14:43:33.369Z,71.40
2017-07-01T14:46:01.949Z,70.90
2017-07-01T14:48:30.421Z,71.30
2017-07-01T14:50:58.753Z,71.20
2017-07-01T14:53:27.133Z,70.90
2017-07-01T14:55:56.462Z,70.30
2017-07-01T14:58:25.593Z,71.00
2017-07-01T15:00:54.279Z,71.00
2017-07-01T15:03:22.585Z,71.20
2017-07-01T15:05:51.840Z,69.60
2017-07-01T15:08:20.424Z,69.50
2017-07-01T15:10:48.770Z,69.60
2017-07-01T15:13:17.123Z,69.40
2017-07-01T15:15:45.783Z,70.00
2017-07-01T15:18:14.303Z,70.10
2017-07-01T15:20:44.011Z,69.90
2017-07-01T15:23:12.697Z,69.60
2017-07-01T15:25:41.109Z,70.50
2017-07-01T15:28:09.578Z,70.90
2017-07-01T15:30:38.406Z,68.70
2017-07-01T15:33:07.859Z,68.60
2017-07-01T15:35:36.369Z,69.20
2017-07-01T15:38:05.132Z,67.60
2017-07-01T15:40:33.528Z,67.30
2017-07-01T15:43:01.890Z,66.50
2017-07-01T15:45:31.284Z,66.00
2017-07-01T15:47:59.910Z,65.70
2017-07-01T15:50:28.467Z,64.80
2017-07-01T15:52:57.499Z,63.60
2017-07-01T15:55:25.847Z,62.70
2017-07-01T15:57:54.257Z,62.40
2017-07-01T16:00:35.382Z,61.70
2017-07-01T16:03:03.804Z,62.10
2017-07-01T16:05:37.755Z,61.80
2017-07-01T16:08:06.259Z,62.40
2017-07-01T16:10:34.627Z,61.10
2017-07-01T16:13:03.442Z,60.80
2017-07-01T16:15:31.752Z,60.90
2017-07-01T16:18:00.108Z,58.40
2017-07-01T16:20:28.693Z,58.10
2017-07-01T16:22:57.057Z,57.90
2017-07-01T16:25:26.422Z,57.30
2017-07-01T16:27:55.045Z,58.20
2017-07-01T16:30:23.403Z,59.20
2017-07-01T16:32:51.760Z,60.20
2017-07-01T16:35:20.623Z,61.10
2017-07-01T16:37:50.915Z,59.20
2017-07-01T16:40:19.303Z,57.70
2017-07-01T16:42:49.108Z,56.80
2017-07-01T16:45:17.518Z,57.80
2017-07-01T16:47:46.862Z,58.50
2017-07-01T16:50:15.390Z,57.50
2017-07-01T16:52:43.995Z,56.30
2017-07-01T16:55:12.441Z,54.10
2017-07-01T16:57:41.829Z,54.40
2017-07-01T17:00:10.219Z,53.60
2017-07-01T17:02:38.907Z,52.70
2017-07-01T17:05:09.363Z,51.10
2017-07-01T17:07:38.227Z,51.60
2017-07-01T17:10:07.554Z,50.00
2017-07-01T17:12:36.950Z,49.60
2017-07-01T17:15:05.404Z,49.30
2017-07-01T17:17:33.856Z,50.70
2017-07-01T17:20:02.773Z,51.40
2017-07-01T17:22:32.226Z,51.90
2017-07-01T17:25:03.098Z,51.90
2017-07-01T17:27:36.949Z,51.50
2017-07-01T17:30:05.530Z,51.10
2017-07-01T17:32:33.911Z,50.50
2017-07-01T17:35:04.070Z,50.00
2017-07-01T17:37:35.554Z,50.00
2017-07-01T17:40:04.007Z,49.60
2017-07-01T17:42:32.738Z,50.90
2017-07-01T17:45:01.091Z,52.60
2017-07-01T17:47:29.450Z,54.30
2017-07-01T17:49:58.019Z,57.00
2017-07-01T17:52:26.561Z,58.10
2017-07-01T17:54:55.913Z,59.40
2017-07-01T17:57:24.588Z,60.80
2017-07-01T17:59:52.987Z,62.20
2017-07-01T18:02:21.370Z,63.90
2017-07-01T18:04:50.054Z,64.90
2017-07-01T18:07:18.454Z,66.70
2017-07-01T18:09:47.448Z,67.20
2017-07-01T18:12:17.335Z,68.10
2017-07-01T18:14:45.905Z,69.00
2017-07-01T18:17:14.396Z,69.70
2017-07-01T18:19:44.297Z,70.10
2017-07-01T18:22:12.631Z,70.80
2017-07-01T18:24:41.047Z,69.40
2017-07-01T18:27:12.686Z,69.00
2017-07-01T18:29:41.337Z,69.40
2017-07-01T18:32:10.096Z,69.90
2017-07-01T18:34:39.698Z,69.60
2017-07-01T18:37:08.878Z,68.80
2017-07-01T18:39:37.730Z,66.50
2017-07-01T18:42:07.331Z,65.80
2017-07-01T18:44:37.178Z,64.80
2017-07-01T18:47:06.548Z,63.40
2017-07-01T18:49:36.598Z,63.50
2017-07-01T18:52:05.384Z,64.00
2017-07-01T18:54:33.785Z,65.00
2017-07-01T18:57:02.612Z,65.90
2017-07-01T18:59:31.951Z,66.10
2017-07-01T19:02:00.359Z,66.70
2017-07-01T19:04:29.024Z,67.10
2017-07-01T19:06:57.443Z,66.20
2017-07-01T19:09:25.813Z,66.70
2017-07-01T19:11:54.195Z,66.60
2017-07-01T19:14:25.294Z,66.50
2017-07-01T19:16:53.822Z,67.70
2017-07-01T19:19:23.234Z,67.90
2017-07-01T19:21:54.375Z,68.30
2017-07-01T19:24:22.762Z,69.00
2017-07-01T19:26:51.993Z,70.30
2017-07-01T19:29:20.360Z,70.70
2017-07-01T19:31:48.742Z,70.50
2017-07-01T19:34:17.473Z,70.90
2017-07-01T19:36:46.848Z,71.20
2017-07-01T19:39:15.223Z,70.90
2017-07-01T19:41:44.013Z,69.90
2017-07-01T19:44:13.241Z,69.20
2017-07-01T19:46:41.722Z,67.70
2017-07-01T19:49:10.222Z,67.00
2017-07-01T19:51:40.014Z,66.80
2017-07-01T19:54:08.424Z,67.60
2017-07-01T19:56:37.535Z,67.80
2017-07-01T19:59:06.331Z,67.80
2017-07-01T20:01:34.767Z,68.60
2017-07-01T20:04:03.451Z,69.00
2017-07-01T20:06:33.131Z,69.40
2017-07-01T20:09:01.564Z,70.10
2017-07-01T20:11:30.089Z,71.20
2017-07-01T20:13:59.056Z,72.20
2017-07-01T20:16:28.318Z,72.90
2017-07-01T20:18:57.583Z,73.90
2017-07-01T20:21:25.967Z,75.00
2017-07-01T20:23:54.409Z,75.60
2017-07-01T20:26:23.289Z,76.20
2017-07-01T20:28:51.811Z,76.60
2017-07-01T20:31:20.217Z,77.10
2017-07-01T20:33:49.556Z,77.20
2017-07-01T20:36:24.575Z,76.80
2017-07-01T20:38:55.075Z,77.20
2017-07-01T20:41:23.412Z,77.30
2017-07-01T20:43:51.850Z,76.30
2017-07-01T20:46:20.537Z,76.10
2017-07-01T20:48:48.945Z,76.10
2017-07-01T20:51:17.431Z,76.50
2017-07-01T20:53:46.149Z,77.30
2017-07-01T20:56:14.682Z,78.00
2017-07-01T20:58:43.101Z,79.00
2017-07-01T21:01:12.067Z,79.90
2017-07-01T21:03:40.462Z,80.80
2017-07-01T21:06:09.171Z,81.60
2017-07-01T21:08:37.738Z,82.50
2017-07-01T21:11:06.375Z,83.20
2017-07-01T21:13:34.801Z,83.80
2017-07-01T21:16:03.747Z,84.50
2017-07-01T21:18:32.993Z,85.10
2017-07-01T21:21:01.397Z,85.80
2017-07-01T21:23:30.091Z,86.60
2017-07-01T21:25:58.523Z,87.00
2017-07-01T21:28:26.842Z,87.50
2017-07-01T21:30:55.733Z,88.10
2017-07-01T21:33:24.111Z,88.20
2017-07-01T21:35:52.455Z,88.50
2017-07-01T21:38:26.880Z,88.70
2017-07-01T21:40:55.267Z,89.00
2017-07-01T21:43:24.639Z,89.00
2017-07-01T21:45:53.191Z,89.10
2017-07-01T21:48:21.612Z,89.20
2017-07-01T21:50:49.973Z,89.30
2017-07-01T21:53:19.404Z,89.60
2017-07-01T21:55:49.056Z,89.90
2017-07-01T21:58:17.465Z,90.20
2017-07-01T22:00:46.748Z,90.30
2017-07-01T22:03:15.148Z,90.20
2017-07-01T22:05:43.724Z,90.20
2017-07-01T22:08:12.481Z,90.30
2017-07-01T22:10:41.916Z,90.40
2017-07-01T22:13:10.638Z,90.50
2017-07-01T22:15:39.370Z,90.50
2017-07-01T22:18:07.758Z,90.80
2017-07-01T22:20:36.471Z,90.50
2017-07-01T22:23:05.227Z,90.40
2017-07-01T22:25:34.629Z,90.40
2017-07-01T22:28:02.989Z,90.30
2017-07-01T22:30:31.521Z,90.20
2017-07-01T22:32:59.944Z,90.20
2017-07-01T22:35:28.297Z,90.20
2017-07-01T22:37:57.120Z,90.20
2017-07-01T22:40:27.467Z,90.20
2017-07-01T22:42:55.846Z,90.10
2017-07-01T22:45:24.428Z,90.10
2017-07-01T22:48:00.306Z,90.30
2017-07-01T22:50:29.719Z,90.30
2017-07-01T22:52:58.109Z,90.40
2017-07-01T22:55:26.478Z,90.50
2017-07-01T22:57:56.174Z,90.60
2017-07-01T23:00:24.549Z,90.70
2017-07-01T23:02:53.887Z,90.80
2017-07-01T23:05:22.674Z,90.80
2017-07-01T23:07:51.213Z,90.90
2017-07-01T23:10:19.665Z,90.90
2017-07-01T23:12:48.747Z,91.00
2017-07-01T23:15:17.127Z,91.00
2017-07-01T23:17:45.581Z,91.00
2017-07-01T23:20:14.977Z,90.90
2017-07-01T23:22:44.225Z,90.90
2017-07-01T23:25:12.655Z,90.70
2017-07-01T23:27:41.111Z,90.60
2017-07-01T23:30:09.569Z,90.60
2017-07-01T23:32:38.056Z,90.40
2017-07-01T23:35:07.705Z,90.20
2017-07-01T23:37:36.340Z,90.00
2017-07-01T23:40:05.880Z,90.00
2017-07-01T23:42:37.256Z,89.90
2017-07-01T23:45:05.733Z,89.80
2017-07-01T23:47:34.125Z,89.80
2017-07-01T23:50:03.691Z,89.80
2017-07-01T23:52:33.024Z,89.90
2017-07-01T23:55:02.538Z,89.90
2017-07-01T23:57:30.928Z,89.80
2017-07-01T23:59:59.295Z,89.70
